Aviation Digital Data Service (ADDS)

Output produced by METARs form (0858 UTC 24 March 2019)
found at http://www.aviationweather.gov/metar/data/
 
METAR text: DFFD 240800Z 02007KT 8000 NSC 30/M01 Q1011 NOSIG
Conditions at: DFFD (OUAGADOUGOU (MIL, BF) observed 0800 UTC 24 March 2019
Temperature: 30.0°C (86°F)
Dewpoint: -1.0°C (30°F) [RH = 13%]
Pressure (altimeter): 29.85 inches Hg (1011.0 mb)
Winds: from the NNE (20 degrees) at 8 MPH (7 knots; 3.6 m/s)
Visibility: 5 miles ( 8 km)
Ceiling: at least 12,000 feet AGL
Clouds: sky clear below 12,000 feet AGL
Weather: no significant weather observed at this time

METAR text: DFFD 240700Z 01003KT CAVOK 26/00 Q1010 NOSIG
Conditions at: DFFD (OUAGADOUGOU (MIL, BF) observed 0700 UTC 24 March 2019
Temperature: 26.0°C (79°F)
Dewpoint: 0.0°C (32°F) [RH = 18%]
Pressure (altimeter): 29.82 inches Hg (1010.0 mb)
Winds: from the N (10 degrees) at 3 MPH (3 knots; 1.5 m/s)
Visibility: 6 or more miles (10+ km)
Ceiling: ceiling and visibility are OK
Clouds: unknown
Weather: no significant weather observed at this time

METAR text: DFFD 240600Z 34004KT 310V010 CAVOK 26/00 Q1010 NOSIG
Conditions at: DFFD (OUAGADOUGOU (MIL, BF) observed 0600 UTC 24 March 2019
Temperature: 26.0°C (79°F)
Dewpoint: 0.0°C (32°F) [RH = 18%]
Pressure (altimeter): 29.82 inches Hg (1010.0 mb)
Winds: from the NNW (340 degrees) at 5 MPH (4 knots; 2.1 m/s)
Visibility: 6 or more miles (10+ km)
Ceiling: ceiling and visibility are OK
Clouds: unknown
Weather: no significant weather observed at this time

METAR text: DFFD 240500Z VRB02KT CAVOK 26/00 Q1009 NOSIG
Conditions at: DFFD (OUAGADOUGOU (MIL, BF) observed 0500 UTC 24 March 2019
Temperature: 26.0°C (79°F)
Dewpoint: 0.0°C (32°F) [RH = 18%]
Pressure (altimeter): 29.79 inches Hg (1009.0 mb)
Winds: variable direction winds at 2 MPH (2 knots; 1.0 m/s)
Visibility: 6 or more miles (10+ km)
Ceiling: ceiling and visibility are OK
Clouds: unknown
Weather: no significant weather observed at this time

METAR text: DFFD 240400Z 35002KT CAVOK 27/M01 Q1008 NOSIG
Conditions at: DFFD (OUAGADOUGOU (MIL, BF) observed 0400 UTC 24 March 2019
Temperature: 27.0°C (81°F)
Dewpoint: -1.0°C (30°F) [RH = 16%]
Pressure (altimeter): 29.76 inches Hg (1008.0 mb)
Winds: from the N (350 degrees) at 2 MPH (2 knots; 1.0 m/s)
Visibility: 6 or more miles (10+ km)
Ceiling: ceiling and visibility are OK
Clouds: unknown
Weather: no significant weather observed at this time

METAR text: DFFD 240300Z 36003KT CAVOK 28/M01 Q1009 NOSIG
Conditions at: DFFD (OUAGADOUGOU (MIL, BF) observed 0300 UTC 24 March 2019
Temperature: 28.0°C (82°F)
Dewpoint: -1.0°C (30°F) [RH = 15%]
Pressure (altimeter): 29.79 inches Hg (1009.0 mb)
Winds: from the N (360 degrees) at 3 MPH (3 knots; 1.5 m/s)
Visibility: 6 or more miles (10+ km)
Ceiling: ceiling and visibility are OK
Clouds: unknown
Weather: no significant weather observed at this time

METAR text: DFFD 240200Z 31003KT CAVOK 29/00 Q1010 NOSIG
Conditions at: DFFD (OUAGADOUGOU (MIL, BF) observed 0200 UTC 24 March 2019
Temperature: 29.0°C (84°F)
Dewpoint: 0.0°C (32°F) [RH = 15%]
Pressure (altimeter): 29.82 inches Hg (1010.0 mb)
Winds: from the NW (310 degrees) at 3 MPH (3 knots; 1.5 m/s)
Visibility: 6 or more miles (10+ km)
Ceiling: ceiling and visibility are OK
Clouds: unknown
Weather: no significant weather observed at this time

METAR text: DFFD 240100Z 03004KT CAVOK 30/00 Q1010 NOSIG
Conditions at: DFFD (OUAGADOUGOU (MIL, BF) observed 0100 UTC 24 March 2019
Temperature: 30.0°C (86°F)
Dewpoint: 0.0°C (32°F) [RH = 14%]
Pressure (altimeter): 29.82 inches Hg (1010.0 mb)
Winds: from the NNE (30 degrees) at 5 MPH (4 knots; 2.1 m/s)
Visibility: 6 or more miles (10+ km)
Ceiling: ceiling and visibility are OK
Clouds: unknown
Weather: no significant weather observed at this time

METAR text: DFFD 240000Z 01003KT 340V050 CAVOK 30/M01 Q1010 NOSIG
Conditions at: DFFD (OUAGADOUGOU (MIL, BF) observed 0000 UTC 24 March 2019
Temperature: 30.0°C (86°F)
Dewpoint: -1.0°C (30°F) [RH = 13%]
Pressure (altimeter): 29.82 inches Hg (1010.0 mb)
Winds: from the N (10 degrees) at 3 MPH (3 knots; 1.5 m/s)
Visibility: 6 or more miles (10+ km)
Ceiling: ceiling and visibility are OK
Clouds: unknown
Weather: no significant weather observed at this time

METAR text: DFFD 232300Z 01004KT CAVOK 32/M01 Q1011 NOSIG
Conditions at: DFFD (OUAGADOUGOU (MIL, BF) observed 2300 UTC 23 March 2019
Temperature: 32.0°C (90°F)
Dewpoint: -1.0°C (30°F) [RH = 12%]
Pressure (altimeter): 29.85 inches Hg (1011.0 mb)
Winds: from the N (10 degrees) at 5 MPH (4 knots; 2.1 m/s)
Visibility: 6 or more miles (10+ km)
Ceiling: ceiling and visibility are OK
Clouds: unknown
Weather: no significant weather observed at this time

METAR text: DFFD 232200Z 36004KT CAVOK 33/M01 Q1011 NOSIG
Conditions at: DFFD (OUAGADOUGOU (MIL, BF) observed 2200 UTC 23 March 2019
Temperature: 33.0°C (91°F)
Dewpoint: -1.0°C (30°F) [RH = 11%]
Pressure (altimeter): 29.85 inches Hg (1011.0 mb)
Winds: from the N (360 degrees) at 5 MPH (4 knots; 2.1 m/s)
Visibility: 6 or more miles (10+ km)
Ceiling: ceiling and visibility are OK
Clouds: unknown
Weather: no significant weather observed at this time

METAR text: DFFD 232100Z 01004KT CAVOK 33/00 Q1010 NOSIG
Conditions at: DFFD (OUAGADOUGOU (MIL, BF) observed 2100 UTC 23 March 2019
Temperature: 33.0°C (91°F)
Dewpoint: 0.0°C (32°F) [RH = 12%]
Pressure (altimeter): 29.82 inches Hg (1010.0 mb)
Winds: from the N (10 degrees) at 5 MPH (4 knots; 2.1 m/s)
Visibility: 6 or more miles (10+ km)
Ceiling: ceiling and visibility are OK
Clouds: unknown
Weather: no significant weather observed at this time

METAR text: DFFD 232000Z 36005KT CAVOK 34/01 Q1010 NOSIG
Conditions at: DFFD (OUAGADOUGOU (MIL, BF) observed 2000 UTC 23 March 2019
Temperature: 34.0°C (93°F)
Dewpoint: 1.0°C (34°F) [RH = 12%]
Pressure (altimeter): 29.82 inches Hg (1010.0 mb)
Winds: from the N (360 degrees) at 6 MPH (5 knots; 2.6 m/s)
Visibility: 6 or more miles (10+ km)
Ceiling: ceiling and visibility are OK
Clouds: unknown
Weather: no significant weather observed at this time

METAR text: DFFD 231900Z 01006KT CAVOK 35/00 Q1009 NOSIG
Conditions at: DFFD (OUAGADOUGOU (MIL, BF) observed 1900 UTC 23 March 2019
Temperature: 35.0°C (95°F)
Dewpoint: 0.0°C (32°F) [RH = 11%]
Pressure (altimeter): 29.79 inches Hg (1009.0 mb)
Winds: from the N (10 degrees) at 7 MPH (6 knots; 3.1 m/s)
Visibility: 6 or more miles (10+ km)
Ceiling: ceiling and visibility are OK
Clouds: unknown
Weather: no significant weather observed at this time

METAR text: DFFD 231800Z 02005KT CAVOK 36/M05 Q1009 NOSIG
Conditions at: DFFD (OUAGADOUGOU (MIL, BF) observed 1800 UTC 23 March 2019
Temperature: 36.0°C (97°F)
Dewpoint: -5.0°C (23°F) [RH =  7%]
Pressure (altimeter): 29.79 inches Hg (1009.0 mb)
Winds: from the NNE (20 degrees) at 6 MPH (5 knots; 2.6 m/s)
Visibility: 6 or more miles (10+ km)
Ceiling: ceiling and visibility are OK
Clouds: unknown
Weather: no significant weather observed at this time

METAR text: DFFD 231700Z 02006KT 350V060 CAVOK 38/M06 Q1008 NOSIG
Conditions at: DFFD (OUAGADOUGOU (MIL, BF) observed 1700 UTC 23 March 2019
Temperature: 38.0°C (100°F)
Dewpoint: -6.0°C (21°F) [RH =  6%]
Pressure (altimeter): 29.76 inches Hg (1008.0 mb)
Winds: from the NNE (20 degrees) at 7 MPH (6 knots; 3.1 m/s)
Visibility: 6 or more miles (10+ km)
Ceiling: ceiling and visibility are OK
Clouds: unknown
Weather: no significant weather observed at this time

METAR text: DFFD 231600Z 03006KT 340V070 CAVOK 38/M08 Q1008 NOSIG
Conditions at: DFFD (OUAGADOUGOU (MIL, BF) observed 1600 UTC 23 March 2019
Temperature: 38.0°C (100°F)
Dewpoint: -8.0°C (18°F) [RH =  5%]
Pressure (altimeter): 29.76 inches Hg (1008.0 mb)
Winds: from the NNE (30 degrees) at 7 MPH (6 knots; 3.1 m/s)
Visibility: 6 or more miles (10+ km)
Ceiling: ceiling and visibility are OK
Clouds: unknown
Weather: no significant weather observed at this time

METAR text: DFFD 231500Z 07009KT 030V100 CAVOK 39/M07 Q1009 NOSIG
Conditions at: DFFD (OUAGADOUGOU (MIL, BF) observed 1500 UTC 23 March 2019
Temperature: 39.0°C (102°F)
Dewpoint: -7.0°C (19°F) [RH =  5%]
Pressure (altimeter): 29.79 inches Hg (1009.0 mb)
Winds: from the ENE (70 degrees) at 10 MPH (9 knots; 4.6 m/s)
Visibility: 6 or more miles (10+ km)
Ceiling: ceiling and visibility are OK
Clouds: unknown
Weather: no significant weather observed at this time

METAR text: DFFD 231400Z 05008KT 010V090 CAVOK 38/M08 Q1009 NOSIG
Conditions at: DFFD (OUAGADOUGOU (MIL, BF) observed 1400 UTC 23 March 2019
Temperature: 38.0°C (100°F)
Dewpoint: -8.0°C (18°F) [RH =  5%]
Pressure (altimeter): 29.79 inches Hg (1009.0 mb)
Winds: from the NE (50 degrees) at 9 MPH (8 knots; 4.1 m/s)
Visibility: 6 or more miles (10+ km)
Ceiling: ceiling and visibility are OK
Clouds: unknown
Weather: no significant weather observed at this time

METAR text: DFFD 231300Z 05008KT 360V100 CAVOK 38/M08 Q1010 NOSIG
Conditions at: DFFD (OUAGADOUGOU (MIL, BF) observed 1300 UTC 23 March 2019
Temperature: 38.0°C (100°F)
Dewpoint: -8.0°C (18°F) [RH =  5%]
Pressure (altimeter): 29.82 inches Hg (1010.0 mb)
Winds: from the NE (50 degrees) at 9 MPH (8 knots; 4.1 m/s)
Visibility: 6 or more miles (10+ km)
Ceiling: ceiling and visibility are OK
Clouds: unknown
Weather: no significant weather observed at this time

METAR text: DFFD 231200Z 06011KT CAVOK 37/M09 Q1011 NOSIG
Conditions at: DFFD (OUAGADOUGOU (MIL, BF) observed 1200 UTC 23 March 2019
Temperature: 37.0°C (99°F)
Dewpoint: -9.0°C (16°F) [RH =  5%]
Pressure (altimeter): 29.85 inches Hg (1011.0 mb)
Winds: from the ENE (60 degrees) at 13 MPH (11 knots; 5.7 m/s)
Visibility: 6 or more miles (10+ km)
Ceiling: ceiling and visibility are OK
Clouds: unknown
Weather: no significant weather observed at this time

METAR text: DFFD 231100Z 05011KT 020V080 CAVOK 36/M07 Q1012 NOSIG
Conditions at: DFFD (OUAGADOUGOU (MIL, BF) observed 1100 UTC 23 March 2019
Temperature: 36.0°C (97°F)
Dewpoint: -7.0°C (19°F) [RH =  6%]
Pressure (altimeter): 29.88 inches Hg (1012.0 mb)
Winds: from the NE (50 degrees) at 13 MPH (11 knots; 5.7 m/s)
Visibility: 6 or more miles (10+ km)
Ceiling: ceiling and visibility are OK
Clouds: unknown
Weather: no significant weather observed at this time

METAR text: DFFD 231000Z 05011KT 020V080 8000 NSC 35/M06 Q1013 NOSIG
Conditions at: DFFD (OUAGADOUGOU (MIL, BF) observed 1000 UTC 23 March 2019
Temperature: 35.0°C (95°F)
Dewpoint: -6.0°C (21°F) [RH =  7%]
Pressure (altimeter): 29.91 inches Hg (1013.0 mb)
Winds: from the NE (50 degrees) at 13 MPH (11 knots; 5.7 m/s)
Visibility: 5 miles ( 8 km)
Ceiling: at least 12,000 feet AGL
Clouds: sky clear below 12,000 feet AGL
Weather: no significant weather observed at this time

METAR text: DFFD 230900Z 04010KT 6000 NSC 32/M07 Q1013 NOSIG
Conditions at: DFFD (OUAGADOUGOU (MIL, BF) observed 0900 UTC 23 March 2019
Temperature: 32.0°C (90°F)
Dewpoint: -7.0°C (19°F) [RH =  8%]
Pressure (altimeter): 29.91 inches Hg (1013.0 mb)
Winds: from the NE (40 degrees) at 12 MPH (10 knots; 5.1 m/s)
Visibility: 4 miles ( 6 km)
Ceiling: at least 12,000 feet AGL
Clouds: sky clear below 12,000 feet AGL
Weather: no significant weather observed at this time

METAR text: DFFD 230800Z 07005KT 6000 NSC 30/M05 Q1012 NOSIG
Conditions at: DFFD (OUAGADOUGOU (MIL, BF) observed 0800 UTC 23 March 2019
Temperature: 30.0°C (86°F)
Dewpoint: -5.0°C (23°F) [RH = 10%]
Pressure (altimeter): 29.88 inches Hg (1012.0 mb)
Winds: from the ENE (70 degrees) at 6 MPH (5 knots; 2.6 m/s)
Visibility: 4 miles ( 6 km)
Ceiling: at least 12,000 feet AGL
Clouds: sky clear below 12,000 feet AGL
Weather: no significant weather observed at this time

METAR text: DFFD 230700Z 02004KT 8000 NSC 26/M03 Q1011 TEMPO 4000 DU
Conditions at: DFFD (OUAGADOUGOU (MIL, BF) observed 0700 UTC 23 March 2019
Temperature: 26.0°C (79°F)
Dewpoint: -3.0°C (27°F) [RH = 15%]
Pressure (altimeter): 29.85 inches Hg (1011.0 mb)
Winds: from the NNE (20 degrees) at 5 MPH (4 knots; 2.1 m/s)
Visibility: 5 miles ( 8 km)
Ceiling: at least 12,000 feet AGL
Clouds: sky clear below 12,000 feet AGL
Weather: no significant weather observed at this time

METAR text: DFFD 230600Z 03004KT CAVOK 26/M05 Q1010 NOSIG
Conditions at: DFFD (OUAGADOUGOU (MIL, BF) observed 0600 UTC 23 March 2019
Temperature: 26.0°C (79°F)
Dewpoint: -5.0°C (23°F) [RH = 13%]
Pressure (altimeter): 29.82 inches Hg (1010.0 mb)
Winds: from the NNE (30 degrees) at 5 MPH (4 knots; 2.1 m/s)
Visibility: 6 or more miles (10+ km)
Ceiling: ceiling and visibility are OK
Clouds: unknown
Weather: no significant weather observed at this time

METAR text: DFFD 230500Z 01006KT CAVOK 28/M07 Q1010 NOSIG
Conditions at: DFFD (OUAGADOUGOU (MIL, BF) observed 0500 UTC 23 March 2019
Temperature: 28.0°C (82°F)
Dewpoint: -7.0°C (19°F) [RH = 10%]
Pressure (altimeter): 29.82 inches Hg (1010.0 mb)
Winds: from the N (10 degrees) at 7 MPH (6 knots; 3.1 m/s)
Visibility: 6 or more miles (10+ km)
Ceiling: ceiling and visibility are OK
Clouds: unknown
Weather: no significant weather observed at this time

METAR text: DFFD 230400Z 34005KT CAVOK 28/M06 Q1009 NOSIG
Conditions at: DFFD (OUAGADOUGOU (MIL, BF) observed 0400 UTC 23 March 2019
Temperature: 28.0°C (82°F)
Dewpoint: -6.0°C (21°F) [RH = 10%]
Pressure (altimeter): 29.79 inches Hg (1009.0 mb)
Winds: from the NNW (340 degrees) at 6 MPH (5 knots; 2.6 m/s)
Visibility: 6 or more miles (10+ km)
Ceiling: ceiling and visibility are OK
Clouds: unknown
Weather: no significant weather observed at this time

METAR text: DFFD 230300Z 36004KT CAVOK 29/M06 Q1009 NOSIG
Conditions at: DFFD (OUAGADOUGOU (MIL, BF) observed 0300 UTC 23 March 2019
Temperature: 29.0°C (84°F)
Dewpoint: -6.0°C (21°F) [RH = 10%]
Pressure (altimeter): 29.79 inches Hg (1009.0 mb)
Winds: from the N (360 degrees) at 5 MPH (4 knots; 2.1 m/s)
Visibility: 6 or more miles (10+ km)
Ceiling: ceiling and visibility are OK
Clouds: unknown
Weather: no significant weather observed at this time

METAR text: DFFD 230200Z 36006KT CAVOK 30/M06 Q1009 NOSIG
Conditions at: DFFD (OUAGADOUGOU (MIL, BF) observed 0200 UTC 23 March 2019
Temperature: 30.0°C (86°F)
Dewpoint: -6.0°C (21°F) [RH =  9%]
Pressure (altimeter): 29.79 inches Hg (1009.0 mb)
Winds: from the N (360 degrees) at 7 MPH (6 knots; 3.1 m/s)
Visibility: 6 or more miles (10+ km)
Ceiling: ceiling and visibility are OK
Clouds: unknown
Weather: no significant weather observed at this time

METAR text: DFFD 230100Z 36005KT CAVOK 30/M06 Q1010 NOSIG
Conditions at: DFFD (OUAGADOUGOU (MIL, BF) observed 0100 UTC 23 March 2019
Temperature: 30.0°C (86°F)
Dewpoint: -6.0°C (21°F) [RH =  9%]
Pressure (altimeter): 29.82 inches Hg (1010.0 mb)
Winds: from the N (360 degrees) at 6 MPH (5 knots; 2.6 m/s)
Visibility: 6 or more miles (10+ km)
Ceiling: ceiling and visibility are OK
Clouds: unknown
Weather: no significant weather observed at this time

METAR text: DFFD 230000Z 36006KT CAVOK 31/M05 Q1010 NOSIG
Conditions at: DFFD (OUAGADOUGOU (MIL, BF) observed 0000 UTC 23 March 2019
Temperature: 31.0°C (88°F)
Dewpoint: -5.0°C (23°F) [RH =  9%]
Pressure (altimeter): 29.82 inches Hg (1010.0 mb)
Winds: from the N (360 degrees) at 7 MPH (6 knots; 3.1 m/s)
Visibility: 6 or more miles (10+ km)
Ceiling: ceiling and visibility are OK
Clouds: unknown
Weather: no significant weather observed at this time

METAR text: DFFD 222300Z 36007KT 320V030 CAVOK 33/M06 Q1011 NOSIG
Conditions at: DFFD (OUAGADOUGOU (MIL, BF) observed 2300 UTC 22 March 2019
Temperature: 33.0°C (91°F)
Dewpoint: -6.0°C (21°F) [RH =  8%]
Pressure (altimeter): 29.85 inches Hg (1011.0 mb)
Winds: from the N (360 degrees) at 8 MPH (7 knots; 3.6 m/s)
Visibility: 6 or more miles (10+ km)
Ceiling: ceiling and visibility are OK
Clouds: unknown
Weather: no significant weather observed at this time

METAR text: DFFD 222200Z 35006KT CAVOK 33/M03 Q1010 NOSIG
Conditions at: DFFD (OUAGADOUGOU (MIL, BF) observed 2200 UTC 22 March 2019
Temperature: 33.0°C (91°F)
Dewpoint: -3.0°C (27°F) [RH = 10%]
Pressure (altimeter): 29.82 inches Hg (1010.0 mb)
Winds: from the N (350 degrees) at 7 MPH (6 knots; 3.1 m/s)
Visibility: 6 or more miles (10+ km)
Ceiling: ceiling and visibility are OK
Clouds: unknown
Weather: no significant weather observed at this time

METAR text: DFFD 222100Z 34003KT CAVOK 33/M01 Q1010 NOSIG
Conditions at: DFFD (OUAGADOUGOU (MIL, BF) observed 2100 UTC 22 March 2019
Temperature: 33.0°C (91°F)
Dewpoint: -1.0°C (30°F) [RH = 11%]
Pressure (altimeter): 29.82 inches Hg (1010.0 mb)
Winds: from the NNW (340 degrees) at 3 MPH (3 knots; 1.5 m/s)
Visibility: 6 or more miles (10+ km)
Ceiling: ceiling and visibility are OK
Clouds: unknown
Weather: no significant weather observed at this time

Forecast for: DFFD (OUAGADOUGOU (MIL, BF)
Text: TAF DFFD 240500Z 2406/2512 02008KT CAVOK
Forecast period: 0600 UTC 24 March 2019 to 1200 UTC 25 March 2019
Forecast type: FROM: standard forecast or significant change
Winds: from the NNE (20 degrees) at 9 MPH (8 knots; 4.1 m/s)
Visibility: 6 or more miles 10+ km)
Ceiling: unknown
Clouds: missing
Weather: NSW  (no significant weather)